Open Full Screen Window  High Contrast Mode
Wind Gusting 00 knots
04
May 28, 2017 8:35 PM PDT
Weather Information
Wind Direction
  270 °
Wind Speed
  04 kt (5 mph)
Wind Gust
  00 kt (0 mph)
Altimeter
30.02 in
Visibility
10 SM
Temperature
14° C
57° F
Dewpoint
10° C
50° F
Humidity
77%
1hr Rain Fall
00.00 in.
24hr Rain Fall
00.00 in.
Sky Condition
Clear
VFR

METAR KCVH 290335Z AUTO 27004KT 10SM CLR 14/10 A3002 RMK AO1

*Background is not an actual portrayal of the airport.